sensor_id;sensor_type;location;lat;lon;timestamp;P1;durP1;ratioP1;P2;durP2;ratioP2
72949;SDS011;64868;45.710;9.590;2023-04-10T00:01:29;6.25;;;2.72;;
72949;SDS011;64868;45.710;9.590;2023-04-10T00:04:02;5.90;;;2.55;;
72949;SDS011;64868;45.710;9.590;2023-04-10T00:06:34;6.22;;;2.75;;
72949;SDS011;64868;45.710;9.590;2023-04-10T00:09:07;5.72;;;2.70;;
72949;SDS011;64868;45.710;9.590;2023-04-10T00:11:36;5.82;;;2.80;;
72949;SDS011;64868;45.710;9.590;2023-04-10T00:14:08;6.18;;;2.63;;
72949;SDS011;64868;45.710;9.590;2023-04-10T00:16:38;6.47;;;2.80;;
72949;SDS011;64868;45.710;9.590;2023-04-10T00:19:11;6.80;;;3.10;;
72949;SDS011;64868;45.710;9.590;2023-04-10T00:21:43;6.00;;;3.00;;
72949;SDS011;64868;45.710;9.590;2023-04-10T00:24:16;6.43;;;3.03;;
72949;SDS011;64868;45.710;9.590;2023-04-10T00:26:49;5.97;;;3.17;;
72949;SDS011;64868;45.710;9.590;2023-04-10T00:29:21;5.88;;;2.60;;
72949;SDS011;64868;45.710;9.590;2023-04-10T00:31:54;6.18;;;3.00;;
72949;SDS011;64868;45.710;9.590;2023-04-10T00:34:22;6.32;;;2.90;;
72949;SDS011;64868;45.710;9.590;2023-04-10T00:36:53;7.07;;;3.03;;
72949;SDS011;64868;45.710;9.590;2023-04-10T00:39:25;6.80;;;2.90;;
72949;SDS011;64868;45.710;9.590;2023-04-10T00:41:55;7.10;;;3.42;;
72949;SDS011;64868;45.710;9.590;2023-04-10T00:44:28;6.68;;;3.40;;
72949;SDS011;64868;45.710;9.590;2023-04-10T00:46:58;7.00;;;3.20;;
72949;SDS011;64868;45.710;9.590;2023-04-10T00:49:32;8.70;;;2.97;;
72949;SDS011;64868;45.710;9.590;2023-04-10T00:52:05;6.60;;;2.95;;
72949;SDS011;64868;45.710;9.590;2023-04-10T00:54:36;6.45;;;2.90;;
72949;SDS011;64868;45.710;9.590;2023-04-10T00:57:08;6.93;;;2.75;;
72949;SDS011;64868;45.710;9.590;2023-04-10T00:59:42;6.60;;;3.10;;
72949;SDS011;64868;45.710;9.590;2023-04-10T01:02:14;6.53;;;3.45;;
72949;SDS011;64868;45.710;9.590;2023-04-10T01:04:47;6.30;;;2.97;;
72949;SDS011;64868;45.710;9.590;2023-04-10T01:10:04;5.95;;;3.03;;
72949;SDS011;64868;45.710;9.590;2023-04-10T01:12:45;8.13;;;3.22;;
72949;SDS011;64868;45.710;9.590;2023-04-10T01:15:22;7.10;;;2.85;;
72949;SDS011;64868;45.710;9.590;2023-04-10T01:18:08;7.20;;;3.13;;
72949;SDS011;64868;45.710;9.590;2023-04-10T01:21:00;6.63;;;3.10;;
72949;SDS011;64868;45.710;9.590;2023-04-10T01:26:52;7.38;;;2.85;;
72949;SDS011;64868;45.710;9.590;2023-04-10T01:29:32;6.43;;;3.13;;
72949;SDS011;64868;45.710;9.590;2023-04-10T01:32:12;6.22;;;2.70;;
72949;SDS011;64868;45.710;9.590;2023-04-10T01:34:46;5.88;;;2.83;;
72949;SDS011;64868;45.710;9.590;2023-04-10T01:37:23;6.93;;;2.70;;
72949;SDS011;64868;45.710;9.590;2023-04-10T01:39:58;6.63;;;2.42;;
72949;SDS011;64868;45.710;9.590;2023-04-10T01:42:33;5.10;;;2.38;;
72949;SDS011;64868;45.710;9.590;2023-04-10T01:45:05;5.53;;;2.42;;
72949;SDS011;64868;45.710;9.590;2023-04-10T01:47:41;5.80;;;2.78;;
72949;SDS011;64868;45.710;9.590;2023-04-10T01:50:11;5.53;;;2.53;;
72949;SDS011;64868;45.710;9.590;2023-04-10T01:52:42;6.28;;;2.83;;
72949;SDS011;64868;45.710;9.590;2023-04-10T01:55:11;6.35;;;2.50;;
72949;SDS011;64868;45.710;9.590;2023-04-10T01:57:41;6.00;;;2.58;;
72949;SDS011;64868;45.710;9.590;2023-04-10T02:00:16;5.90;;;2.42;;
72949;SDS011;64868;45.710;9.590;2023-04-10T02:02:49;6.07;;;2.70;;
72949;SDS011;64868;45.710;9.590;2023-04-10T02:05:21;6.10;;;2.33;;
72949;SDS011;64868;45.710;9.590;2023-04-10T02:08:03;6.18;;;3.05;;
72949;SDS011;64868;45.710;9.590;2023-04-10T02:10:47;5.93;;;2.88;;
72949;SDS011;64868;45.710;9.590;2023-04-10T02:13:20;5.82;;;2.60;;
72949;SDS011;64868;45.710;9.590;2023-04-10T02:15:52;6.88;;;3.03;;
72949;SDS011;64868;45.710;9.590;2023-04-10T02:18:26;5.68;;;2.60;;
72949;SDS011;64868;45.710;9.590;2023-04-10T02:21:00;6.35;;;2.75;;
72949;SDS011;64868;45.710;9.590;2023-04-10T02:23:33;5.40;;;2.45;;
72949;SDS011;64868;45.710;9.590;2023-04-10T02:26:04;6.40;;;2.95;;
72949;SDS011;64868;45.710;9.590;2023-04-10T02:28:38;6.35;;;2.63;;
72949;SDS011;64868;45.710;9.590;2023-04-10T02:31:11;6.38;;;2.75;;
72949;SDS011;64868;45.710;9.590;2023-04-10T02:33:43;6.13;;;2.90;;
72949;SDS011;64868;45.710;9.590;2023-04-10T02:36:16;6.43;;;3.05;;
72949;SDS011;64868;45.710;9.590;2023-04-10T02:38:46;6.40;;;2.53;;
72949;SDS011;64868;45.710;9.590;2023-04-10T02:41:19;6.28;;;3.20;;
72949;SDS011;64868;45.710;9.590;2023-04-10T02:43:47;6.80;;;3.13;;
72949;SDS011;64868;45.710;9.590;2023-04-10T02:46:19;6.55;;;3.40;;
72949;SDS011;64868;45.710;9.590;2023-04-10T02:48:55;6.07;;;3.05;;
72949;SDS011;64868;45.710;9.590;2023-04-10T02:51:28;5.93;;;2.75;;
72949;SDS011;64868;45.710;9.590;2023-04-10T02:53:58;7.15;;;3.22;;
72949;SDS011;64868;45.710;9.590;2023-04-10T02:56:28;6.63;;;3.17;;
72949;SDS011;64868;45.710;9.590;2023-04-10T02:58:58;5.80;;;2.63;;
72949;SDS011;64868;45.710;9.590;2023-04-10T03:01:29;6.57;;;3.25;;
72949;SDS011;64868;45.710;9.590;2023-04-10T03:04:01;7.78;;;2.80;;
72949;SDS011;64868;45.710;9.590;2023-04-10T03:06:34;7.00;;;2.75;;
72949;SDS011;64868;45.710;9.590;2023-04-10T03:09:04;7.22;;;2.92;;
72949;SDS011;64868;45.710;9.590;2023-04-10T03:11:37;5.82;;;2.83;;
72949;SDS011;64868;45.710;9.590;2023-04-10T03:14:09;6.60;;;3.03;;
72949;SDS011;64868;45.710;9.590;2023-04-10T03:16:41;6.40;;;2.90;;
72949;SDS011;64868;45.710;9.590;2023-04-10T03:19:10;6.05;;;2.90;;
72949;SDS011;64868;45.710;9.590;2023-04-10T03:21:42;6.03;;;2.85;;
72949;SDS011;64868;45.710;9.590;2023-04-10T03:24:14;5.63;;;2.55;;
72949;SDS011;64868;45.710;9.590;2023-04-10T03:26:45;7.28;;;2.90;;
72949;SDS011;64868;45.710;9.590;2023-04-10T03:29:17;6.60;;;3.00;;
72949;SDS011;64868;45.710;9.590;2023-04-10T03:31:47;5.78;;;2.42;;
72949;SDS011;64868;45.710;9.590;2023-04-10T03:34:20;7.07;;;2.58;;
72949;SDS011;64868;45.710;9.590;2023-04-10T03:36:50;5.40;;;2.35;;
72949;SDS011;64868;45.710;9.590;2023-04-10T03:39:18;6.18;;;2.28;;
72949;SDS011;64868;45.710;9.590;2023-04-10T03:41:51;6.13;;;2.55;;
72949;SDS011;64868;45.710;9.590;2023-04-10T03:44:23;6.25;;;2.70;;
72949;SDS011;64868;45.710;9.590;2023-04-10T03:46:56;5.80;;;2.47;;
72949;SDS011;64868;45.710;9.590;2023-04-10T03:49:24;6.90;;;2.72;;
72949;SDS011;64868;45.710;9.590;2023-04-10T03:51:54;6.28;;;3.03;;
72949;SDS011;64868;45.710;9.590;2023-04-10T03:54:26;6.00;;;2.60;;
72949;SDS011;64868;45.710;9.590;2023-04-10T03:57:00;6.78;;;3.10;;
72949;SDS011;64868;45.710;9.590;2023-04-10T03:59:28;8.45;;;2.80;;
72949;SDS011;64868;45.710;9.590;2023-04-10T04:01:58;6.07;;;2.47;;
72949;SDS011;64868;45.710;9.590;2023-04-10T04:04:31;6.25;;;2.67;;
72949;SDS011;64868;45.710;9.590;2023-04-10T04:07:03;5.25;;;2.30;;
72949;SDS011;64868;45.710;9.590;2023-04-10T04:09:36;5.90;;;2.35;;
72949;SDS011;64868;45.710;9.590;2023-04-10T04:12:07;6.15;;;2.72;;
72949;SDS011;64868;45.710;9.590;2023-04-10T04:14:40;6.28;;;2.72;;
72949;SDS011;64868;45.710;9.590;2023-04-10T04:17:12;5.53;;;2.35;;
72949;SDS011;64868;45.710;9.590;2023-04-10T04:19:42;6.43;;;2.70;;
72949;SDS011;64868;45.710;9.590;2023-04-10T04:22:13;5.93;;;2.63;;
72949;SDS011;64868;45.710;9.590;2023-04-10T04:24:46;5.82;;;2.50;;
72949;SDS011;64868;45.710;9.590;2023-04-10T04:27:16;7.97;;;2.83;;
72949;SDS011;64868;45.710;9.590;2023-04-10T04:29:46;6.45;;;2.60;;
72949;SDS011;64868;45.710;9.590;2023-04-10T04:32:16;5.60;;;2.17;;
72949;SDS011;64868;45.710;9.590;2023-04-10T04:34:46;6.07;;;2.60;;
72949;SDS011;64868;45.710;9.590;2023-04-10T04:37:19;5.40;;;2.38;;
72949;SDS011;64868;45.710;9.590;2023-04-10T04:39:52;6.22;;;2.70;;
72949;SDS011;64868;45.710;9.590;2023-04-10T04:42:22;5.82;;;2.60;;
72949;SDS011;64868;45.710;9.590;2023-04-10T04:44:55;6.35;;;2.67;;
72949;SDS011;64868;45.710;9.590;2023-04-10T04:47:27;5.88;;;2.47;;
72949;SDS011;64868;45.710;9.590;2023-04-10T04:49:58;6.57;;;2.33;;
72949;SDS011;64868;45.710;9.590;2023-04-10T04:52:28;6.60;;;2.95;;
72949;SDS011;64868;45.710;9.590;2023-04-10T04:55:01;5.72;;;2.40;;
72949;SDS011;64868;45.710;9.590;2023-04-10T04:57:31;6.00;;;2.63;;
72949;SDS011;64868;45.710;9.590;2023-04-10T05:00:04;7.10;;;3.10;;
72949;SDS011;64868;45.710;9.590;2023-04-10T05:02:38;5.20;;;2.53;;
72949;SDS011;64868;45.710;9.590;2023-04-10T05:05:10;6.32;;;3.00;;
72949;SDS011;64868;45.710;9.590;2023-04-10T05:07:40;5.63;;;2.65;;
72949;SDS011;64868;45.710;9.590;2023-04-10T05:10:13;6.72;;;2.75;;
72949;SDS011;64868;45.710;9.590;2023-04-10T05:12:46;6.97;;;2.55;;
72949;SDS011;64868;45.710;9.590;2023-04-10T05:15:14;5.80;;;2.65;;
72949;SDS011;64868;45.710;9.590;2023-04-10T05:17:46;6.45;;;2.78;;
72949;SDS011;64868;45.710;9.590;2023-04-10T05:20:19;6.10;;;2.83;;
72949;SDS011;64868;45.710;9.590;2023-04-10T05:22:49;6.38;;;2.97;;
72949;SDS011;64868;45.710;9.590;2023-04-10T05:27:49;7.53;;;3.35;;
72949;SDS011;64868;45.710;9.590;2023-04-10T05:30:19;6.40;;;2.92;;
72949;SDS011;64868;45.710;9.590;2023-04-10T05:32:52;6.85;;;2.72;;
72949;SDS011;64868;45.710;9.590;2023-04-10T05:35:25;6.28;;;3.03;;
72949;SDS011;64868;45.710;9.590;2023-04-10T05:37:55;6.95;;;2.85;;
72949;SDS011;64868;45.710;9.590;2023-04-10T05:40:25;6.95;;;3.00;;
72949;SDS011;64868;45.710;9.590;2023-04-10T05:42:57;9.07;;;3.47;;
72949;SDS011;64868;45.710;9.590;2023-04-10T05:45:30;12.45;;;3.78;;
72949;SDS011;64868;45.710;9.590;2023-04-10T05:47:55;9.45;;;3.22;;
72949;SDS011;64868;45.710;9.590;2023-04-10T05:50:26;10.93;;;3.72;;
72949;SDS011;64868;45.710;9.590;2023-04-10T05:52:56;9.25;;;3.33;;
72949;SDS011;64868;45.710;9.590;2023-04-10T05:55:30;7.40;;;2.83;;
72949;SDS011;64868;45.710;9.590;2023-04-10T05:57:56;6.47;;;3.08;;
72949;SDS011;64868;45.710;9.590;2023-04-10T06:00:29;7.03;;;3.33;;
72949;SDS011;64868;45.710;9.590;2023-04-10T06:03:02;7.20;;;3.35;;
72949;SDS011;64868;45.710;9.590;2023-04-10T06:05:34;6.47;;;2.90;;
72949;SDS011;64868;45.710;9.590;2023-04-10T06:08:07;7.95;;;2.70;;
72949;SDS011;64868;45.710;9.590;2023-04-10T06:10:37;7.30;;;3.42;;
72949;SDS011;64868;45.710;9.590;2023-04-10T06:13:08;10.15;;;2.90;;
72949;SDS011;64868;45.710;9.590;2023-04-10T06:15:38;6.30;;;2.83;;
72949;SDS011;64868;45.710;9.590;2023-04-10T06:18:09;6.90;;;3.25;;
72949;SDS011;64868;45.710;9.590;2023-04-10T06:20:39;8.55;;;3.30;;
72949;SDS011;64868;45.710;9.590;2023-04-10T06:23:12;6.90;;;3.05;;
72949;SDS011;64868;45.710;9.590;2023-04-10T06:25:51;6.35;;;2.85;;
72949;SDS011;64868;45.710;9.590;2023-04-10T06:28:21;5.95;;;2.65;;
72949;SDS011;64868;45.710;9.590;2023-04-10T06:30:52;6.18;;;2.67;;
72949;SDS011;64868;45.710;9.590;2023-04-10T06:33:22;7.18;;;2.90;;
72949;SDS011;64868;45.710;9.590;2023-04-10T06:35:52;7.55;;;3.35;;
72949;SDS011;64868;45.710;9.590;2023-04-10T06:38:25;6.80;;;2.80;;
72949;SDS011;64868;45.710;9.590;2023-04-10T06:40:55;7.47;;;3.33;;
72949;SDS011;64868;45.710;9.590;2023-04-10T06:43:25;6.22;;;2.85;;
72949;SDS011;64868;45.710;9.590;2023-04-10T06:45:59;6.85;;;3.03;;
72949;SDS011;64868;45.710;9.590;2023-04-10T06:48:36;6.88;;;2.65;;
72949;SDS011;64868;45.710;9.590;2023-04-10T06:51:11;6.28;;;2.90;;
72949;SDS011;64868;45.710;9.590;2023-04-10T06:53:43;7.75;;;2.60;;
72949;SDS011;64868;45.710;9.590;2023-04-10T06:56:16;6.13;;;2.58;;
72949;SDS011;64868;45.710;9.590;2023-04-10T06:58:48;5.47;;;1.85;;
72949;SDS011;64868;45.710;9.590;2023-04-10T07:01:19;4.50;;;1.75;;
72949;SDS011;64868;45.710;9.590;2023-04-10T07:03:51;5.07;;;1.73;;
72949;SDS011;64868;45.710;9.590;2023-04-10T07:06:24;5.03;;;1.50;;
72949;SDS011;64868;45.710;9.590;2023-04-10T07:08:52;5.68;;;1.20;;
72949;SDS011;64868;45.710;9.590;2023-04-10T07:11:23;4.07;;;1.10;;
72949;SDS011;64868;45.710;9.590;2023-04-10T07:13:53;4.18;;;1.30;;
72949;SDS011;64868;45.710;9.590;2023-04-10T07:16:25;4.25;;;1.52;;
72949;SDS011;64868;45.710;9.590;2023-04-10T07:18:53;4.07;;;1.20;;
72949;SDS011;64868;45.710;9.590;2023-04-10T07:21:26;4.18;;;1.30;;
72949;SDS011;64868;45.710;9.590;2023-04-10T07:23:59;3.75;;;1.23;;
72949;SDS011;64868;45.710;9.590;2023-04-10T07:26:29;4.10;;;1.30;;
72949;SDS011;64868;45.710;9.590;2023-04-10T07:29:01;3.45;;;1.20;;
72949;SDS011;64868;45.710;9.590;2023-04-10T07:31:34;4.28;;;1.50;;
72949;SDS011;64868;45.710;9.590;2023-04-10T07:34:09;3.83;;;1.30;;
72949;SDS011;64868;45.710;9.590;2023-04-10T07:36:45;4.75;;;1.90;;
72949;SDS011;64868;45.710;9.590;2023-04-10T07:39:18;4.75;;;1.45;;
72949;SDS011;64868;45.710;9.590;2023-04-10T07:41:54;4.65;;;1.60;;
72949;SDS011;64868;45.710;9.590;2023-04-10T07:44:27;4.13;;;1.63;;
72949;SDS011;64868;45.710;9.590;2023-04-10T07:46:58;4.32;;;1.60;;
72949;SDS011;64868;45.710;9.590;2023-04-10T07:49:29;4.70;;;1.80;;
72949;SDS011;64868;45.710;9.590;2023-04-10T07:51:57;5.07;;;1.95;;
72949;SDS011;64868;45.710;9.590;2023-04-10T07:54:27;4.88;;;1.80;;
72949;SDS011;64868;45.710;9.590;2023-04-10T07:56:58;5.65;;;1.48;;
72949;SDS011;64868;45.710;9.590;2023-04-10T07:59:27;4.60;;;1.30;;
72949;SDS011;64868;45.710;9.590;2023-04-10T08:02:01;3.75;;;1.30;;
72949;SDS011;64868;45.710;9.590;2023-04-10T08:04:43;4.05;;;1.48;;
72949;SDS011;64868;45.710;9.590;2023-04-10T08:07:14;4.63;;;1.20;;
72949;SDS011;64868;45.710;9.590;2023-04-10T08:09:41;4.85;;;1.55;;
72949;SDS011;64868;45.710;9.590;2023-04-10T08:12:12;4.07;;;1.20;;
72949;SDS011;64868;45.710;9.590;2023-04-10T08:14:44;5.03;;;1.17;;
72949;SDS011;64868;45.710;9.590;2023-04-10T08:17:17;3.75;;;1.27;;
72949;SDS011;64868;45.710;9.590;2023-04-10T08:19:44;4.28;;;1.23;;
72949;SDS011;64868;45.710;9.590;2023-04-10T08:24:44;3.33;;;1.20;;
72949;SDS011;64868;45.710;9.590;2023-04-10T08:27:14;4.20;;;1.00;;
72949;SDS011;64868;45.710;9.590;2023-04-10T08:29:56;4.85;;;1.17;;
72949;SDS011;64868;45.710;9.590;2023-04-10T08:32:27;4.38;;;1.33;;
72949;SDS011;64868;45.710;9.590;2023-04-10T08:34:59;4.03;;;1.13;;
72949;SDS011;64868;45.710;9.590;2023-04-10T08:37:29;6.40;;;1.80;;
72949;SDS011;64868;45.710;9.590;2023-04-10T08:40:02;6.03;;;1.60;;
72949;SDS011;64868;45.710;9.590;2023-04-10T08:42:32;4.43;;;1.60;;
72949;SDS011;64868;45.710;9.590;2023-04-10T08:45:02;5.00;;;1.42;;
72949;SDS011;64868;45.710;9.590;2023-04-10T08:47:30;4.85;;;1.70;;
72949;SDS011;64868;45.710;9.590;2023-04-10T08:50:07;5.18;;;1.80;;
72949;SDS011;64868;45.710;9.590;2023-04-10T08:52:44;4.50;;;1.83;;
72949;SDS011;64868;45.710;9.590;2023-04-10T08:55:13;3.92;;;1.60;;
72949;SDS011;64868;45.710;9.590;2023-04-10T08:57:43;6.25;;;2.05;;
72949;SDS011;64868;45.710;9.590;2023-04-10T09:00:14;4.72;;;1.80;;
72949;SDS011;64868;45.710;9.590;2023-04-10T09:02:47;4.95;;;1.90;;
72949;SDS011;64868;45.710;9.590;2023-04-10T09:05:15;5.32;;;2.00;;
72949;SDS011;64868;45.710;9.590;2023-04-10T09:07:45;6.22;;;2.03;;
72949;SDS011;64868;45.710;9.590;2023-04-10T09:10:15;5.85;;;2.42;;
72949;SDS011;64868;45.710;9.590;2023-04-10T09:12:48;5.70;;;2.05;;
72949;SDS011;64868;45.710;9.590;2023-04-10T09:15:18;4.70;;;2.00;;
72949;SDS011;64868;45.710;9.590;2023-04-10T09:17:55;4.80;;;1.90;;
72949;SDS011;64868;45.710;9.590;2023-04-10T09:20:29;7.95;;;2.53;;
72949;SDS011;64868;45.710;9.590;2023-04-10T09:23:01;7.45;;;2.10;;
72949;SDS011;64868;45.710;9.590;2023-04-10T09:25:48;4.95;;;2.17;;
72949;SDS011;64868;45.710;9.590;2023-04-10T09:28:21;7.72;;;3.03;;
72949;SDS011;64868;45.710;9.590;2023-04-10T09:30:51;5.50;;;2.60;;
72949;SDS011;64868;45.710;9.590;2023-04-10T09:33:27;5.15;;;2.20;;
72949;SDS011;64868;45.710;9.590;2023-04-10T09:35:57;6.05;;;2.03;;
72949;SDS011;64868;45.710;9.590;2023-04-10T09:38:28;5.70;;;2.05;;
72949;SDS011;64868;45.710;9.590;2023-04-10T09:41:08;5.10;;;2.05;;
72949;SDS011;64868;45.710;9.590;2023-04-10T09:43:38;6.38;;;2.50;;
72949;SDS011;64868;45.710;9.590;2023-04-10T09:48:37;5.25;;;2.30;;
72949;SDS011;64868;45.710;9.590;2023-04-10T09:51:28;5.45;;;2.38;;
72949;SDS011;64868;45.710;9.590;2023-04-10T09:54:02;5.35;;;2.15;;
72949;SDS011;64868;45.710;9.590;2023-04-10T09:56:33;6.55;;;2.70;;
72949;SDS011;64868;45.710;9.590;2023-04-10T09:59:05;5.60;;;2.33;;
72949;SDS011;64868;45.710;9.590;2023-04-10T10:01:33;7.32;;;2.50;;
72949;SDS011;64868;45.710;9.590;2023-04-10T10:04:09;5.50;;;2.50;;
72949;SDS011;64868;45.710;9.590;2023-04-10T10:06:41;9.27;;;2.50;;
72949;SDS011;64868;45.710;9.590;2023-04-10T10:09:11;5.72;;;2.60;;
72949;SDS011;64868;45.710;9.590;2023-04-10T10:11:44;5.82;;;2.47;;
72949;SDS011;64868;45.710;9.590;2023-04-10T10:14:16;5.50;;;2.40;;
72949;SDS011;64868;45.710;9.590;2023-04-10T10:16:50;6.30;;;2.70;;
72949;SDS011;64868;45.710;9.590;2023-04-10T10:22:21;8.63;;;3.00;;
72949;SDS011;64868;45.710;9.590;2023-04-10T10:24:54;5.65;;;2.58;;
72949;SDS011;64868;45.710;9.590;2023-04-10T10:27:29;6.50;;;2.90;;
72949;SDS011;64868;45.710;9.590;2023-04-10T10:30:02;5.10;;;2.50;;
72949;SDS011;64868;45.710;9.590;2023-04-10T10:32:34;5.75;;;2.60;;
72949;SDS011;64868;45.710;9.590;2023-04-10T10:35:07;5.85;;;2.30;;
72949;SDS011;64868;45.710;9.590;2023-04-10T10:37:39;5.55;;;2.67;;
72949;SDS011;64868;45.710;9.590;2023-04-10T10:40:21;8.23;;;2.83;;
72949;SDS011;64868;45.710;9.590;2023-04-10T10:46:01;6.45;;;3.00;;
72949;SDS011;64868;45.710;9.590;2023-04-10T10:48:33;7.35;;;3.10;;
72949;SDS011;64868;45.710;9.590;2023-04-10T10:51:05;5.75;;;2.80;;
72949;SDS011;64868;45.710;9.590;2023-04-10T10:53:40;6.88;;;3.00;;
72949;SDS011;64868;45.710;9.590;2023-04-10T10:58:59;7.50;;;3.40;;
72949;SDS011;64868;45.710;9.590;2023-04-10T11:01:33;5.88;;;3.10;;
72949;SDS011;64868;45.710;9.590;2023-04-10T11:04:03;6.13;;;3.17;;
72949;SDS011;64868;45.710;9.590;2023-04-10T11:07:09;6.80;;;3.42;;
72949;SDS011;64868;45.710;9.590;2023-04-10T11:09:46;7.22;;;3.25;;
72949;SDS011;64868;45.710;9.590;2023-04-10T11:12:24;6.85;;;3.40;;
72949;SDS011;64868;45.710;9.590;2023-04-10T11:15:01;6.50;;;3.28;;
72949;SDS011;64868;45.710;9.590;2023-04-10T11:17:49;6.43;;;3.20;;
72949;SDS011;64868;45.710;9.590;2023-04-10T11:20:23;7.72;;;3.30;;
72949;SDS011;64868;45.710;9.590;2023-04-10T11:23:26;6.72;;;3.40;;
72949;SDS011;64868;45.710;9.590;2023-04-10T11:25:51;7.50;;;3.78;;
72949;SDS011;64868;45.710;9.590;2023-04-10T11:28:36;8.38;;;3.10;;
72949;SDS011;64868;45.710;9.590;2023-04-10T11:33:49;15.38;;;8.60;;
72949;SDS011;64868;45.710;9.590;2023-04-10T11:36:28;7.88;;;4.00;;
72949;SDS011;64868;45.710;9.590;2023-04-10T11:39:01;6.78;;;3.53;;
72949;SDS011;64868;45.710;9.590;2023-04-10T11:41:32;7.32;;;3.55;;
72949;SDS011;64868;45.710;9.590;2023-04-10T11:44:05;8.20;;;3.25;;
72949;SDS011;64868;45.710;9.590;2023-04-10T11:46:41;6.85;;;3.33;;
72949;SDS011;64868;45.710;9.590;2023-04-10T11:49:20;7.53;;;4.00;;
72949;SDS011;64868;45.710;9.590;2023-04-10T11:51:52;6.50;;;3.50;;
72949;SDS011;64868;45.710;9.590;2023-04-10T11:54:26;7.63;;;3.63;;
72949;SDS011;64868;45.710;9.590;2023-04-10T11:56:57;7.47;;;3.30;;
72949;SDS011;64868;45.710;9.590;2023-04-10T11:59:28;6.07;;;3.05;;
72949;SDS011;64868;45.710;9.590;2023-04-10T12:02:06;6.43;;;3.33;;
72949;SDS011;64868;45.710;9.590;2023-04-10T12:04:38;8.95;;;4.60;;
72949;SDS011;64868;45.710;9.590;2023-04-10T12:07:11;7.90;;;4.13;;
72949;SDS011;64868;45.710;9.590;2023-04-10T12:09:44;6.63;;;3.83;;
72949;SDS011;64868;45.710;9.590;2023-04-10T12:12:26;8.43;;;3.65;;
72949;SDS011;64868;45.710;9.590;2023-04-10T12:15:27;7.43;;;3.92;;
72949;SDS011;64868;45.710;9.590;2023-04-10T12:17:58;6.60;;;3.63;;
72949;SDS011;64868;45.710;9.590;2023-04-10T12:20:30;10.02;;;4.15;;
72949;SDS011;64868;45.710;9.590;2023-04-10T12:23:00;8.50;;;4.68;;
72949;SDS011;64868;45.710;9.590;2023-04-10T12:25:31;9.30;;;4.13;;
72949;SDS011;64868;45.710;9.590;2023-04-10T12:28:04;9.35;;;3.60;;
72949;SDS011;64868;45.710;9.590;2023-04-10T12:30:34;7.88;;;3.75;;
72949;SDS011;64868;45.710;9.590;2023-04-10T12:33:18;8.00;;;3.80;;
72949;SDS011;64868;45.710;9.590;2023-04-10T12:35:51;8.73;;;3.80;;
72949;SDS011;64868;45.710;9.590;2023-04-10T12:38:39;13.32;;;4.30;;
72949;SDS011;64868;45.710;9.590;2023-04-10T12:41:11;10.18;;;4.60;;
72949;SDS011;64868;45.710;9.590;2023-04-10T12:43:41;7.30;;;3.67;;
72949;SDS011;64868;45.710;9.590;2023-04-10T12:46:20;9.02;;;4.13;;
72949;SDS011;64868;45.710;9.590;2023-04-10T12:49:07;6.70;;;3.90;;
72949;SDS011;64868;45.710;9.590;2023-04-10T12:51:47;6.90;;;3.58;;
72949;SDS011;64868;45.710;9.590;2023-04-10T12:54:31;8.15;;;4.57;;
72949;SDS011;64868;45.710;9.590;2023-04-10T12:57:05;8.23;;;4.05;;
72949;SDS011;64868;45.710;9.590;2023-04-10T12:59:35;7.95;;;4.50;;
72949;SDS011;64868;45.710;9.590;2023-04-10T13:02:03;8.50;;;4.00;;
72949;SDS011;64868;45.710;9.590;2023-04-10T13:04:34;7.75;;;4.03;;
72949;SDS011;64868;45.710;9.590;2023-04-10T13:07:04;8.63;;;3.90;;
72949;SDS011;64868;45.710;9.590;2023-04-10T13:09:32;9.82;;;4.20;;
72949;SDS011;64868;45.710;9.590;2023-04-10T13:11:59;7.15;;;3.65;;
72949;SDS011;64868;45.710;9.590;2023-04-10T13:14:30;7.85;;;3.65;;
72949;SDS011;64868;45.710;9.590;2023-04-10T13:17:00;7.03;;;3.22;;
72949;SDS011;64868;45.710;9.590;2023-04-10T13:19:28;6.78;;;3.72;;
72949;SDS011;64868;45.710;9.590;2023-04-10T13:21:58;8.93;;;3.70;;
72949;SDS011;64868;45.710;9.590;2023-04-10T13:24:31;8.10;;;3.40;;
72949;SDS011;64868;45.710;9.590;2023-04-10T13:27:03;7.47;;;3.17;;
72949;SDS011;64868;45.710;9.590;2023-04-10T13:29:35;7.38;;;3.30;;
72949;SDS011;64868;45.710;9.590;2023-04-10T13:32:08;6.63;;;3.50;;
72949;SDS011;64868;45.710;9.590;2023-04-10T13:34:40;7.90;;;3.75;;
72949;SDS011;64868;45.710;9.590;2023-04-10T13:37:11;7.70;;;3.22;;
72949;SDS011;64868;45.710;9.590;2023-04-10T13:39:43;6.28;;;3.38;;
72949;SDS011;64868;45.710;9.590;2023-04-10T13:42:16;7.18;;;2.90;;
72949;SDS011;64868;45.710;9.590;2023-04-10T13:44:44;8.13;;;3.95;;
72949;SDS011;64868;45.710;9.590;2023-04-10T13:47:16;6.95;;;3.47;;
72949;SDS011;64868;45.710;9.590;2023-04-10T13:49:44;8.65;;;3.65;;
72949;SDS011;64868;45.710;9.590;2023-04-10T13:52:16;7.18;;;3.22;;
72949;SDS011;64868;45.710;9.590;2023-04-10T13:54:44;6.35;;;3.03;;
72949;SDS011;64868;45.710;9.590;2023-04-10T13:57:14;6.10;;;2.95;;
72949;SDS011;64868;45.710;9.590;2023-04-10T13:59:47;6.18;;;3.35;;
72949;SDS011;64868;45.710;9.590;2023-04-10T14:02:17;6.30;;;3.20;;
72949;SDS011;64868;45.710;9.590;2023-04-10T14:04:47;10.07;;;3.83;;
72949;SDS011;64868;45.710;9.590;2023-04-10T14:07:17;5.85;;;2.72;;
72949;SDS011;64868;45.710;9.590;2023-04-10T14:09:47;7.95;;;3.40;;
72949;SDS011;64868;45.710;9.590;2023-04-10T14:12:18;7.53;;;3.35;;
72949;SDS011;64868;45.710;9.590;2023-04-10T14:14:45;6.70;;;3.50;;
72949;SDS011;64868;45.710;9.590;2023-04-10T14:17:18;11.30;;;4.07;;
72949;SDS011;64868;45.710;9.590;2023-04-10T14:19:48;7.13;;;3.60;;
72949;SDS011;64868;45.710;9.590;2023-04-10T14:22:17;7.43;;;3.50;;
72949;SDS011;64868;45.710;9.590;2023-04-10T14:24:50;6.63;;;3.30;;
72949;SDS011;64868;45.710;9.590;2023-04-10T14:27:20;7.03;;;3.38;;
72949;SDS011;64868;45.710;9.590;2023-04-10T14:29:53;6.68;;;3.10;;
72949;SDS011;64868;45.710;9.590;2023-04-10T14:32:23;6.13;;;3.20;;
72949;SDS011;64868;45.710;9.590;2023-04-10T14:34:53;7.20;;;2.85;;
72949;SDS011;64868;45.710;9.590;2023-04-10T14:37:26;8.57;;;3.42;;
72949;SDS011;64868;45.710;9.590;2023-04-10T14:39:56;6.75;;;3.05;;
72949;SDS011;64868;45.710;9.590;2023-04-10T14:42:26;7.20;;;3.22;;
72949;SDS011;64868;45.710;9.590;2023-04-10T14:44:53;7.10;;;2.90;;
72949;SDS011;64868;45.710;9.590;2023-04-10T14:47:29;6.63;;;2.75;;
72949;SDS011;64868;45.710;9.590;2023-04-10T14:50:02;6.97;;;3.03;;
72949;SDS011;64868;45.710;9.590;2023-04-10T14:52:32;6.85;;;2.42;;
72949;SDS011;64868;45.710;9.590;2023-04-10T14:55:05;5.47;;;2.58;;
72949;SDS011;64868;45.710;9.590;2023-04-10T14:57:35;7.82;;;2.80;;
72949;SDS011;64868;45.710;9.590;2023-04-10T15:00:06;8.05;;;3.10;;
72949;SDS011;64868;45.710;9.590;2023-04-10T15:02:38;5.85;;;2.90;;
72949;SDS011;64868;45.710;9.590;2023-04-10T15:05:08;5.97;;;2.78;;
72949;SDS011;64868;45.710;9.590;2023-04-10T15:07:38;6.13;;;2.60;;
72949;SDS011;64868;45.710;9.590;2023-04-10T15:10:06;6.50;;;2.80;;
72949;SDS011;64868;45.710;9.590;2023-04-10T15:12:37;8.32;;;2.95;;
72949;SDS011;64868;45.710;9.590;2023-04-10T15:15:09;13.07;;;3.80;;
72949;SDS011;64868;45.710;9.590;2023-04-10T15:17:42;6.68;;;3.38;;
72949;SDS011;64868;45.710;9.590;2023-04-10T15:20:12;8.65;;;2.97;;
72949;SDS011;64868;45.710;9.590;2023-04-10T15:22:45;6.63;;;2.95;;
72949;SDS011;64868;45.710;9.590;2023-04-10T15:25:15;7.07;;;3.67;;
72949;SDS011;64868;45.710;9.590;2023-04-10T15:27:47;6.45;;;2.90;;
72949;SDS011;64868;45.710;9.590;2023-04-10T15:30:18;7.47;;;2.90;;
72949;SDS011;64868;45.710;9.590;2023-04-10T15:32:50;6.75;;;3.13;;
72949;SDS011;64868;45.710;9.590;2023-04-10T15:35:18;6.13;;;2.72;;
72949;SDS011;64868;45.710;9.590;2023-04-10T15:37:51;10.05;;;3.22;;
72949;SDS011;64868;45.710;9.590;2023-04-10T15:40:23;8.25;;;3.22;;
72949;SDS011;64868;45.710;9.590;2023-04-10T15:42:56;8.35;;;2.78;;
72949;SDS011;64868;45.710;9.590;2023-04-10T15:45:27;6.15;;;2.83;;